sensor_id;sensor_type;location;lat;lon;timestamp;pressure;altitude;pressure_sealevel;temperature;humidity
49949;BME280;35840;45.982;8.890;2024-01-16T00:01:48;97109.84;;;1.47;61.50
49949;BME280;35840;45.982;8.890;2024-01-16T00:04:15;97105.06;;;1.41;61.12
49949;BME280;35840;45.982;8.890;2024-01-16T00:06:42;97106.22;;;1.53;61.23
49949;BME280;35840;45.982;8.890;2024-01-16T00:09:13;97100.56;;;1.48;61.23
49949;BME280;35840;45.982;8.890;2024-01-16T00:11:41;97100.00;;;1.41;62.55
49949;BME280;35840;45.982;8.890;2024-01-16T00:14:08;97091.50;;;1.42;62.70
49949;BME280;35840;45.982;8.890;2024-01-16T00:16:47;97098.66;;;1.13;62.71
49949;BME280;35840;45.982;8.890;2024-01-16T00:19:15;97119.44;;;1.41;59.76
49949;BME280;35840;45.982;8.890;2024-01-16T00:21:43;97102.25;;;1.47;60.38
49949;BME280;35840;45.982;8.890;2024-01-16T00:24:13;97122.50;;;1.47;61.23
49949;BME280;35840;45.982;8.890;2024-01-16T00:26:40;97129.06;;;1.51;61.21
49949;BME280;35840;45.982;8.890;2024-01-16T00:29:07;97119.75;;;1.33;61.54
49949;BME280;35840;45.982;8.890;2024-01-16T00:31:35;97121.19;;;1.38;61.40
49949;BME280;35840;45.982;8.890;2024-01-16T00:34:02;97116.78;;;1.23;62.34
49949;BME280;35840;45.982;8.890;2024-01-16T00:36:30;97113.22;;;1.08;61.79
49949;BME280;35840;45.982;8.890;2024-01-16T00:38:57;97125.09;;;1.27;60.01
49949;BME280;35840;45.982;8.890;2024-01-16T00:41:24;97129.00;;;1.34;60.17
49949;BME280;35840;45.982;8.890;2024-01-16T00:43:50;97131.13;;;1.43;60.85
49949;BME280;35840;45.982;8.890;2024-01-16T00:46:17;97143.25;;;1.55;61.95
49949;BME280;35840;45.982;8.890;2024-01-16T00:48:44;97136.53;;;1.54;62.41
49949;BME280;35840;45.982;8.890;2024-01-16T00:51:11;97145.50;;;1.43;61.92
49949;BME280;35840;45.982;8.890;2024-01-16T00:53:41;97104.06;;;1.25;62.25
49949;BME280;35840;45.982;8.890;2024-01-16T00:56:09;97124.22;;;1.28;61.93
49949;BME280;35840;45.982;8.890;2024-01-16T00:58:36;97132.97;;;1.20;62.44
49949;BME280;35840;45.982;8.890;2024-01-16T01:01:04;97142.03;;;1.25;63.19
49949;BME280;35840;45.982;8.890;2024-01-16T01:03:31;97125.59;;;1.35;63.73
49949;BME280;35840;45.982;8.890;2024-01-16T01:05:59;97136.38;;;1.19;64.06
49949;BME280;35840;45.982;8.890;2024-01-16T01:08:27;97132.09;;;1.01;64.82
49949;BME280;35840;45.982;8.890;2024-01-16T01:10:54;97128.78;;;0.78;64.82
49949;BME280;35840;45.982;8.890;2024-01-16T01:13:21;97143.25;;;0.75;64.62
49949;BME280;35840;45.982;8.890;2024-01-16T01:15:48;97143.72;;;0.84;62.99
49949;BME280;35840;45.982;8.890;2024-01-16T01:18:14;97150.09;;;0.93;62.85
49949;BME280;35840;45.982;8.890;2024-01-16T01:20:41;97145.59;;;0.79;63.10
49949;BME280;35840;45.982;8.890;2024-01-16T01:23:09;97155.72;;;1.00;63.91
49949;BME280;35840;45.982;8.890;2024-01-16T01:25:36;97150.03;;;0.95;63.69
49949;BME280;35840;45.982;8.890;2024-01-16T01:28:03;97148.16;;;1.00;63.41
49949;BME280;35840;45.982;8.890;2024-01-16T01:30:31;97150.81;;;0.97;63.56
49949;BME280;35840;45.982;8.890;2024-01-16T01:32:58;97174.88;;;0.64;65.67
49949;BME280;35840;45.982;8.890;2024-01-16T01:35:25;97166.63;;;0.81;65.18
49949;BME280;35840;45.982;8.890;2024-01-16T01:37:52;97156.28;;;0.86;65.62
49949;BME280;35840;45.982;8.890;2024-01-16T01:40:19;97169.34;;;0.55;65.24
49949;BME280;35840;45.982;8.890;2024-01-16T01:42:45;97185.13;;;0.82;62.09
49949;BME280;35840;45.982;8.890;2024-01-16T01:45:12;97181.59;;;0.86;63.54
49949;BME280;35840;45.982;8.890;2024-01-16T01:47:40;97191.44;;;0.94;64.93
49949;BME280;35840;45.982;8.890;2024-01-16T01:50:09;97194.50;;;0.80;65.15
49949;BME280;35840;45.982;8.890;2024-01-16T01:52:38;97193.19;;;0.92;66.16
49949;BME280;35840;45.982;8.890;2024-01-16T01:55:10;97196.09;;;1.03;65.94
49949;BME280;35840;45.982;8.890;2024-01-16T01:57:39;97184.28;;;1.03;65.48
49949;BME280;35840;45.982;8.890;2024-01-16T02:00:06;97195.56;;;0.95;65.32
49949;BME280;35840;45.982;8.890;2024-01-16T02:02:42;97190.31;;;0.79;65.39
49949;BME280;35840;45.982;8.890;2024-01-16T02:05:10;97199.28;;;0.65;65.33
49949;BME280;35840;45.982;8.890;2024-01-16T02:07:38;97214.75;;;0.58;66.26
49949;BME280;35840;45.982;8.890;2024-01-16T02:10:05;97209.63;;;0.59;66.52
49949;BME280;35840;45.982;8.890;2024-01-16T02:12:32;97216.09;;;0.66;65.68
49949;BME280;35840;45.982;8.890;2024-01-16T02:14:59;97214.22;;;0.49;65.67
49949;BME280;35840;45.982;8.890;2024-01-16T02:17:26;97230.31;;;0.69;66.01
49949;BME280;35840;45.982;8.890;2024-01-16T02:19:53;97231.19;;;0.68;66.26
49949;BME280;35840;45.982;8.890;2024-01-16T02:22:21;97227.59;;;0.74;66.52
49949;BME280;35840;45.982;8.890;2024-01-16T02:24:51;97231.72;;;0.76;67.08
49949;BME280;35840;45.982;8.890;2024-01-16T02:27:18;97214.22;;;0.49;66.18
49949;BME280;35840;45.982;8.890;2024-01-16T02:29:45;97234.69;;;0.43;66.74
49949;BME280;35840;45.982;8.890;2024-01-16T02:32:13;97244.47;;;0.53;66.57
49949;BME280;35840;45.982;8.890;2024-01-16T02:34:40;97231.50;;;0.38;67.18
49949;BME280;35840;45.982;8.890;2024-01-16T02:37:07;97253.63;;;0.33;66.40
49949;BME280;35840;45.982;8.890;2024-01-16T02:39:35;97265.97;;;0.41;66.50
49949;BME280;35840;45.982;8.890;2024-01-16T02:42:01;97263.91;;;0.50;66.48
49949;BME280;35840;45.982;8.890;2024-01-16T02:44:28;97261.75;;;0.63;66.55
49949;BME280;35840;45.982;8.890;2024-01-16T02:46:55;97261.00;;;0.61;66.67
49949;BME280;35840;45.982;8.890;2024-01-16T02:49:22;97272.09;;;0.57;66.00
49949;BME280;35840;45.982;8.890;2024-01-16T02:51:49;97271.06;;;0.39;66.19
49949;BME280;35840;45.982;8.890;2024-01-16T02:54:16;97280.25;;;0.42;66.17
49949;BME280;35840;45.982;8.890;2024-01-16T02:56:42;97265.22;;;0.39;66.55
49949;BME280;35840;45.982;8.890;2024-01-16T02:59:09;97276.00;;;0.42;66.17
49949;BME280;35840;45.982;8.890;2024-01-16T03:01:36;97281.59;;;0.50;66.46
49949;BME280;35840;45.982;8.890;2024-01-16T03:04:03;97276.38;;;0.55;66.64
49949;BME280;35840;45.982;8.890;2024-01-16T03:06:30;97273.38;;;0.45;67.00
49949;BME280;35840;45.982;8.890;2024-01-16T03:08:57;97271.75;;;0.44;67.02
49949;BME280;35840;45.982;8.890;2024-01-16T03:11:24;97275.03;;;0.46;66.48
49949;BME280;35840;45.982;8.890;2024-01-16T03:13:51;97290.00;;;0.29;65.81
49949;BME280;35840;45.982;8.890;2024-01-16T03:16:20;97290.31;;;0.20;66.51
49949;BME280;35840;45.982;8.890;2024-01-16T03:18:47;97300.81;;;0.32;67.38
49949;BME280;35840;45.982;8.890;2024-01-16T03:21:14;97285.75;;;0.29;67.67
49949;BME280;35840;45.982;8.890;2024-01-16T03:23:41;97290.84;;;0.04;67.49
49949;BME280;35840;45.982;8.890;2024-01-16T03:26:12;97296.94;;;-0.02;67.36
49949;BME280;35840;45.982;8.890;2024-01-16T03:28:41;97304.91;;;0.13;67.64
49949;BME280;35840;45.982;8.890;2024-01-16T03:31:08;97311.06;;;0.04;67.24
49949;BME280;35840;45.982;8.890;2024-01-16T03:33:35;97320.13;;;0.10;68.47
49949;BME280;35840;45.982;8.890;2024-01-16T03:36:02;97320.47;;;0.01;67.52
49949;BME280;35840;45.982;8.890;2024-01-16T03:38:30;97315.47;;;-0.01;67.29
49949;BME280;35840;45.982;8.890;2024-01-16T03:40:57;97315.94;;;0.10;67.67
49949;BME280;35840;45.982;8.890;2024-01-16T03:43:24;97317.34;;;0.17;67.99
49949;BME280;35840;45.982;8.890;2024-01-16T03:45:51;97323.50;;;0.10;67.74
49949;BME280;35840;45.982;8.890;2024-01-16T03:48:17;97314.91;;;-0.09;67.23
49949;BME280;35840;45.982;8.890;2024-01-16T03:50:44;97299.41;;;-0.24;67.65
49949;BME280;35840;45.982;8.890;2024-01-16T03:53:12;97329.63;;;-0.21;69.30
49949;BME280;35840;45.982;8.890;2024-01-16T03:55:39;97340.84;;;-0.29;67.97
49949;BME280;35840;45.982;8.890;2024-01-16T03:58:06;97321.91;;;-0.18;68.94
49949;BME280;35840;45.982;8.890;2024-01-16T04:00:37;97342.47;;;-0.03;68.89
49949;BME280;35840;45.982;8.890;2024-01-16T04:03:03;97338.50;;;-0.34;69.01
49949;BME280;35840;45.982;8.890;2024-01-16T04:05:30;97339.19;;;-0.30;68.91
49949;BME280;35840;45.982;8.890;2024-01-16T04:07:57;97337.13;;;-0.19;69.13
49949;BME280;35840;45.982;8.890;2024-01-16T04:10:24;97349.72;;;-0.18;69.04
49949;BME280;35840;45.982;8.890;2024-01-16T04:12:51;97361.41;;;-0.15;69.19
49949;BME280;35840;45.982;8.890;2024-01-16T04:15:18;97362.28;;;-0.16;68.82
49949;BME280;35840;45.982;8.890;2024-01-16T04:17:49;97364.25;;;0.01;69.29
49949;BME280;35840;45.982;8.890;2024-01-16T04:20:15;97364.25;;;0.01;68.18
49949;BME280;35840;45.982;8.890;2024-01-16T04:22:43;97376.63;;;-0.16;68.43
49949;BME280;35840;45.982;8.890;2024-01-16T04:25:10;97367.56;;;-0.22;68.19
49949;BME280;35840;45.982;8.890;2024-01-16T04:27:36;97370.13;;;-0.24;68.08
49949;BME280;35840;45.982;8.890;2024-01-16T04:30:03;97389.16;;;-0.13;69.08
49949;BME280;35840;45.982;8.890;2024-01-16T04:32:31;97401.38;;;-0.01;68.19
49949;BME280;35840;45.982;8.890;2024-01-16T04:34:58;97392.41;;;-0.10;68.36
49949;BME280;35840;45.982;8.890;2024-01-16T04:37:24;97395.97;;;-0.15;69.10
49949;BME280;35840;45.982;8.890;2024-01-16T04:39:51;97395.00;;;-0.11;68.55
49949;BME280;35840;45.982;8.890;2024-01-16T04:42:18;97410.31;;;-0.18;69.04
49949;BME280;35840;45.982;8.890;2024-01-16T04:44:45;97414.78;;;-0.26;68.97
49949;BME280;35840;45.982;8.890;2024-01-16T04:47:12;97409.75;;;-0.26;68.93
49949;BME280;35840;45.982;8.890;2024-01-16T04:49:41;97417.00;;;-0.15;69.42
49949;BME280;35840;45.982;8.890;2024-01-16T04:52:08;97418.50;;;-0.09;70.09
49949;BME280;35840;45.982;8.890;2024-01-16T04:54:35;97427.78;;;-0.10;68.95
49949;BME280;35840;45.982;8.890;2024-01-16T04:57:02;97429.41;;;-0.09;69.71
49949;BME280;35840;45.982;8.890;2024-01-16T04:59:29;97437.94;;;-0.38;69.83
49949;BME280;35840;45.982;8.890;2024-01-16T05:01:57;97441.72;;;-0.25;70.01
49949;BME280;35840;45.982;8.890;2024-01-16T05:04:24;97447.72;;;-0.29;70.08
49949;BME280;35840;45.982;8.890;2024-01-16T05:06:51;97446.97;;;-0.31;70.56
49949;BME280;35840;45.982;8.890;2024-01-16T05:09:18;97456.56;;;-0.42;69.59
49949;BME280;35840;45.982;8.890;2024-01-16T05:11:48;97453.47;;;-0.50;70.90
49949;BME280;35840;45.982;8.890;2024-01-16T05:14:15;97455.78;;;-0.44;69.62
49949;BME280;35840;45.982;8.890;2024-01-16T05:16:42;97453.25;;;-0.44;70.48
49949;BME280;35840;45.982;8.890;2024-01-16T05:19:09;97453.94;;;-0.39;70.18
49949;BME280;35840;45.982;8.890;2024-01-16T05:21:36;97461.69;;;-0.44;71.13
49949;BME280;35840;45.982;8.890;2024-01-16T05:24:03;97464.78;;;-0.36;70.39
49949;BME280;35840;45.982;8.890;2024-01-16T05:26:30;97456.69;;;-0.45;70.31
49949;BME280;35840;45.982;8.890;2024-01-16T05:28:57;97467.53;;;-0.43;69.99
49949;BME280;35840;45.982;8.890;2024-01-16T05:31:23;97475.97;;;-0.44;71.14
49949;BME280;35840;45.982;8.890;2024-01-16T05:33:50;97462.63;;;-0.48;69.79
49949;BME280;35840;45.982;8.890;2024-01-16T05:36:17;97474.97;;;-0.67;71.42
49949;BME280;35840;45.982;8.890;2024-01-16T05:38:44;97472.81;;;-0.79;71.48
49949;BME280;35840;45.982;8.890;2024-01-16T05:41:11;97480.88;;;-0.66;71.90
49949;BME280;35840;45.982;8.890;2024-01-16T05:43:37;97485.03;;;-0.65;72.34
49949;BME280;35840;45.982;8.890;2024-01-16T05:46:04;97490.78;;;-0.60;71.59
49949;BME280;35840;45.982;8.890;2024-01-16T05:48:31;97493.34;;;-0.62;71.76
49949;BME280;35840;45.982;8.890;2024-01-16T05:50:58;97489.00;;;-0.58;71.03
49949;BME280;35840;45.982;8.890;2024-01-16T05:53:25;97476.94;;;-0.77;71.11
49949;BME280;35840;45.982;8.890;2024-01-16T05:55:52;97500.59;;;-0.79;72.33
49949;BME280;35840;45.982;8.890;2024-01-16T05:58:20;97496.34;;;-0.79;72.96
49949;BME280;35840;45.982;8.890;2024-01-16T06:00:47;97512.50;;;-0.84;72.40
49949;BME280;35840;45.982;8.890;2024-01-16T06:03:14;97499.69;;;-0.78;71.32
49949;BME280;35840;45.982;8.890;2024-01-16T06:05:40;97518.69;;;-0.65;71.52
49949;BME280;35840;45.982;8.890;2024-01-16T06:08:07;97528.50;;;-0.56;71.53
49949;BME280;35840;45.982;8.890;2024-01-16T06:10:34;97527.59;;;-0.53;70.69
49949;BME280;35840;45.982;8.890;2024-01-16T06:13:01;97515.97;;;-0.59;71.33
49949;BME280;35840;45.982;8.890;2024-01-16T06:15:28;97527.63;;;-0.84;70.59
49949;BME280;35840;45.982;8.890;2024-01-16T06:17:55;97534.94;;;-0.75;71.80
49949;BME280;35840;45.982;8.890;2024-01-16T06:20:22;97522.69;;;-0.88;71.87
49949;BME280;35840;45.982;8.890;2024-01-16T06:22:50;97548.16;;;-0.67;71.63
49949;BME280;35840;45.982;8.890;2024-01-16T06:25:17;97539.16;;;-0.76;71.55
49949;BME280;35840;45.982;8.890;2024-01-16T06:27:44;97561.06;;;-0.76;71.59
49949;BME280;35840;45.982;8.890;2024-01-16T06:30:11;97566.31;;;-0.84;71.76
49949;BME280;35840;45.982;8.890;2024-01-16T06:32:38;97571.25;;;-0.79;71.72
49949;BME280;35840;45.982;8.890;2024-01-16T06:35:06;97571.69;;;-0.65;70.66
49949;BME280;35840;45.982;8.890;2024-01-16T06:37:34;97579.03;;;-0.57;70.28
49949;BME280;35840;45.982;8.890;2024-01-16T06:40:01;97560.53;;;-0.58;70.82
49949;BME280;35840;45.982;8.890;2024-01-16T06:42:28;97554.81;;;-0.64;70.22
49949;BME280;35840;45.982;8.890;2024-01-16T06:44:54;97578.69;;;-0.75;72.17
49949;BME280;35840;45.982;8.890;2024-01-16T06:47:21;97566.97;;;-0.77;72.43
49949;BME280;35840;45.982;8.890;2024-01-16T06:49:50;97567.91;;;-0.81;71.88
49949;BME280;35840;45.982;8.890;2024-01-16T06:52:17;97585.38;;;-0.74;71.51
49949;BME280;35840;45.982;8.890;2024-01-16T06:54:43;97579.25;;;-0.65;72.09
49949;BME280;35840;45.982;8.890;2024-01-16T06:57:10;97596.00;;;-0.62;72.76
49949;BME280;35840;45.982;8.890;2024-01-16T06:59:37;97602.00;;;-0.66;73.16
49949;BME280;35840;45.982;8.890;2024-01-16T07:02:04;97607.06;;;-0.66;73.28
49949;BME280;35840;45.982;8.890;2024-01-16T07:04:31;97607.56;;;-0.85;73.63
49949;BME280;35840;45.982;8.890;2024-01-16T07:06:59;97612.06;;;-0.98;75.09
49949;BME280;35840;45.982;8.890;2024-01-16T07:09:26;97619.97;;;-1.10;75.58
49949;BME280;35840;45.982;8.890;2024-01-16T07:11:54;97632.00;;;-0.87;75.44
49949;BME280;35840;45.982;8.890;2024-01-16T07:14:21;97627.94;;;-1.26;77.66
49949;BME280;35840;45.982;8.890;2024-01-16T07:16:47;97633.53;;;-1.14;76.82
49949;BME280;35840;45.982;8.890;2024-01-16T07:19:14;97630.94;;;-1.11;75.78
49949;BME280;35840;45.982;8.890;2024-01-16T07:21:41;97630.72;;;-1.04;76.11
49949;BME280;35840;45.982;8.890;2024-01-16T07:24:09;97653.84;;;-0.86;76.33
49949;BME280;35840;45.982;8.890;2024-01-16T07:26:35;97659.63;;;-0.82;76.01
49949;BME280;35840;45.982;8.890;2024-01-16T07:29:02;97653.97;;;-0.92;76.27
49949;BME280;35840;45.982;8.890;2024-01-16T07:31:30;97663.53;;;-0.71;75.52
49949;BME280;35840;45.982;8.890;2024-01-16T07:33:57;97674.72;;;-0.79;75.71
49949;BME280;35840;45.982;8.890;2024-01-16T07:36:24;97653.06;;;-0.90;75.10
49949;BME280;35840;45.982;8.890;2024-01-16T07:38:51;97671.41;;;-1.16;76.07
49949;BME280;35840;45.982;8.890;2024-01-16T07:41:17;97675.16;;;-1.32;76.97
49949;BME280;35840;45.982;8.890;2024-01-16T07:43:44;97696.31;;;-1.04;76.81
49949;BME280;35840;45.982;8.890;2024-01-16T07:46:15;97694.97;;;-1.17;76.73
49949;BME280;35840;45.982;8.890;2024-01-16T07:48:42;97707.19;;;-1.36;77.02
49949;BME280;35840;45.982;8.890;2024-01-16T07:51:09;97714.66;;;-1.33;77.37
49949;BME280;35840;45.982;8.890;2024-01-16T07:53:36;97721.19;;;-1.24;77.06
49949;BME280;35840;45.982;8.890;2024-01-16T07:56:03;97724.03;;;-1.38;78.43
49949;BME280;35840;45.982;8.890;2024-01-16T07:58:31;97719.03;;;-1.40;79.79
49949;BME280;35840;45.982;8.890;2024-01-16T08:00:58;97736.44;;;-1.29;80.18
49949;BME280;35840;45.982;8.890;2024-01-16T08:03:24;97726.19;;;-1.23;80.50
49949;BME280;35840;45.982;8.890;2024-01-16T08:05:52;97731.09;;;-1.16;81.23
49949;BME280;35840;45.982;8.890;2024-01-16T08:08:19;97730.88;;;-1.07;80.76
49949;BME280;35840;45.982;8.890;2024-01-16T08:10:46;97754.69;;;-0.83;80.04
49949;BME280;35840;45.982;8.890;2024-01-16T08:13:13;97749.47;;;-0.77;80.28
49949;BME280;35840;45.982;8.890;2024-01-16T08:15:40;97746.50;;;-0.93;79.84
49949;BME280;35840;45.982;8.890;2024-01-16T08:18:07;97761.31;;;-0.79;79.99
49949;BME280;35840;45.982;8.890;2024-01-16T08:20:34;97742.19;;;-0.88;79.43
49949;BME280;35840;45.982;8.890;2024-01-16T08:23:01;97752.91;;;-0.78;79.20
49949;BME280;35840;45.982;8.890;2024-01-16T08:25:27;97765.22;;;-0.67;79.37
49949;BME280;35840;45.982;8.890;2024-01-16T08:27:54;97769.13;;;-0.54;79.06
49949;BME280;35840;45.982;8.890;2024-01-16T08:30:21;97774.00;;;-0.47;79.52
49949;BME280;35840;45.982;8.890;2024-01-16T08:32:48;97781.31;;;-0.37;78.73
49949;BME280;35840;45.982;8.890;2024-01-16T08:35:15;97783.50;;;-0.23;79.12
49949;BME280;35840;45.982;8.890;2024-01-16T08:37:42;97782.19;;;-0.06;78.50
49949;BME280;35840;45.982;8.890;2024-01-16T08:40:09;97780.22;;;0.05;77.65
49949;BME280;35840;45.982;8.890;2024-01-16T08:42:38;97789.28;;;0.12;77.16
49949;BME280;35840;45.982;8.890;2024-01-16T08:45:05;97785.94;;;0.12;76.97
49949;BME280;35840;45.982;8.890;2024-01-16T08:47:32;97798.25;;;0.23;76.65
49949;BME280;35840;45.982;8.890;2024-01-16T08:49:59;97794.63;;;0.33;75.65
49949;BME280;35840;45.982;8.890;2024-01-16T08:52:26;97786.03;;;0.39;75.69
49949;BME280;35840;45.982;8.890;2024-01-16T08:54:53;97798.56;;;0.42;75.66
49949;BME280;35840;45.982;8.890;2024-01-16T08:57:19;97810.13;;;0.50;75.30
49949;BME280;35840;45.982;8.890;2024-01-16T08:59:50;97807.34;;;0.60;75.17
49949;BME280;35840;45.982;8.890;2024-01-16T09:02:17;97797.13;;;0.63;75.11
49949;BME280;35840;45.982;8.890;2024-01-16T09:04:43;97806.97;;;0.72;74.86
49949;BME280;35840;45.982;8.890;2024-01-16T09:07:10;97806.00;;;0.76;75.71
49949;BME280;35840;45.982;8.890;2024-01-16T09:09:42;97815.84;;;0.85;76.19
49949;BME280;35840;45.982;8.890;2024-01-16T09:12:09;97814.91;;;0.90;76.53
49949;BME280;35840;45.982;8.890;2024-01-16T09:14:36;97812.22;;;0.94;76.42
49949;BME280;35840;45.982;8.890;2024-01-16T09:17:03;97831.53;;;0.97;76.42
49949;BME280;35840;45.982;8.890;2024-01-16T09:19:30;97815.63;;;0.93;76.46
49949;BME280;35840;45.982;8.890;2024-01-16T09:21:57;97824.91;;;0.93;77.68
49949;BME280;35840;45.982;8.890;2024-01-16T09:24:24;97816.53;;;0.91;77.59
49949;BME280;35840;45.982;8.890;2024-01-16T09:26:51;97816.63;;;0.88;78.03
49949;BME280;35840;45.982;8.890;2024-01-16T09:29:18;97820.72;;;0.92;78.13
49949;BME280;35840;45.982;8.890;2024-01-16T09:31:45;97814.09;;;0.88;78.32
49949;BME280;35840;45.982;8.890;2024-01-16T09:34:13;97819.50;;;1.05;78.50
49949;BME280;35840;45.982;8.890;2024-01-16T09:36:40;97830.16;;;1.15;77.19
49949;BME280;35840;45.982;8.890;2024-01-16T09:39:07;97827.69;;;1.12;77.34
49949;BME280;35840;45.982;8.890;2024-01-16T09:41:45;97825.31;;;1.07;77.27
49949;BME280;35840;45.982;8.890;2024-01-16T09:44:12;97836.03;;;1.15;77.19
49949;BME280;35840;45.982;8.890;2024-01-16T09:46:40;97825.91;;;1.15;77.56
49949;BME280;35840;45.982;8.890;2024-01-16T09:49:11;97834.28;;;1.17;77.60
49949;BME280;35840;45.982;8.890;2024-01-16T09:51:39;97838.97;;;1.30;76.82
49949;BME280;35840;45.982;8.890;2024-01-16T09:54:06;97840.59;;;1.32;76.90
49949;BME280;35840;45.982;8.890;2024-01-16T09:56:39;97844.03;;;1.30;76.55
49949;BME280;35840;45.982;8.890;2024-01-16T09:59:09;97842.25;;;1.33;76.76
49949;BME280;35840;45.982;8.890;2024-01-16T10:01:37;97838.75;;;1.36;76.77
49949;BME280;35840;45.982;8.890;2024-01-16T10:04:04;97839.47;;;1.41;77.02
49949;BME280;35840;45.982;8.890;2024-01-16T10:06:33;97837.47;;;1.51;77.69
49949;BME280;35840;45.982;8.890;2024-01-16T10:09:00;97831.66;;;1.47;78.23
49949;BME280;35840;45.982;8.890;2024-01-16T10:11:28;97833.25;;;1.50;77.38
49949;BME280;35840;45.982;8.890;2024-01-16T10:13:58;97830.03;;;1.46;77.42
49949;BME280;35840;45.982;8.890;2024-01-16T10:17:02;97834.00;;;1.53;77.45
49949;BME280;35840;45.982;8.890;2024-01-16T10:19:32;97832.19;;;1.57;77.52
49949;BME280;35840;45.982;8.890;2024-01-16T10:22:19;97815.44;;;1.53;77.65
49949;BME280;35840;45.982;8.890;2024-01-16T10:27:36;97821.75;;;1.66;77.63
49949;BME280;35840;45.982;8.890;2024-01-16T10:30:03;97818.38;;;1.67;77.77
49949;BME280;35840;45.982;8.890;2024-01-16T10:32:34;97827.31;;;1.78;77.48
49949;BME280;35840;45.982;8.890;2024-01-16T10:35:11;97821.31;;;1.80;77.52
49949;BME280;35840;45.982;8.890;2024-01-16T10:37:59;97833.53;;;1.93;77.82
49949;BME280;35840;45.982;8.890;2024-01-16T10:40:26;97828.53;;;1.91;78.00
49949;BME280;35840;45.982;8.890;2024-01-16T10:43:01;97827.59;;;1.94;77.77
49949;BME280;35840;45.982;8.890;2024-01-16T10:45:28;97838.31;;;2.02;77.93
49949;BME280;35840;45.982;8.890;2024-01-16T10:48:06;97831.06;;;2.16;78.18
49949;BME280;35840;45.982;8.890;2024-01-16T10:50:35;97819.34;;;2.12;78.84
49949;BME280;35840;45.982;8.890;2024-01-16T10:53:06;97815.78;;;2.18;79.06
49949;BME280;35840;45.982;8.890;2024-01-16T10:55:50;97803.97;;;2.17;79.52
49949;BME280;35840;45.982;8.890;2024-01-16T10:58:23;97810.53;;;2.22;79.46
49949;BME280;35840;45.982;8.890;2024-01-16T11:00:52;97798.72;;;2.45;80.18
49949;BME280;35840;45.982;8.890;2024-01-16T11:03:48;97800.75;;;2.37;79.91
49949;BME280;35840;45.982;8.890;2024-01-16T11:06:17;97813.38;;;2.38;79.32
49949;BME280;35840;45.982;8.890;2024-01-16T11:08:48;97804.97;;;2.36;79.83
49949;BME280;35840;45.982;8.890;2024-01-16T11:11:16;97818.38;;;2.40;79.66
49949;BME280;35840;45.982;8.890;2024-01-16T11:13:46;97810.00;;;2.38;79.92
49949;BME280;35840;45.982;8.890;2024-01-16T11:16:13;97821.41;;;2.50;79.26
49949;BME280;35840;45.982;8.890;2024-01-16T11:18:40;97811.75;;;2.60;79.47
49949;BME280;35840;45.982;8.890;2024-01-16T11:21:09;97815.72;;;2.67;79.41
49949;BME280;35840;45.982;8.890;2024-01-16T11:23:42;97806.34;;;2.69;79.09
49949;BME280;35840;45.982;8.890;2024-01-16T11:26:27;97817.16;;;2.74;78.87
49949;BME280;35840;45.982;8.890;2024-01-16T11:28:59;97800.44;;;2.90;80.42
49949;BME280;35840;45.982;8.890;2024-01-16T11:31:34;97807.19;;;3.34;81.03
49949;BME280;35840;45.982;8.890;2024-01-16T11:34:02;97813.81;;;3.38;80.34
49949;BME280;35840;45.982;8.890;2024-01-16T11:39:17;97798.50;;;3.19;79.82
49949;BME280;35840;45.982;8.890;2024-01-16T11:41:57;97795.75;;;3.24;79.75
49949;BME280;35840;45.982;8.890;2024-01-16T11:44:48;97790.81;;;3.21;79.21
49949;BME280;35840;45.982;8.890;2024-01-16T11:47:21;97789.72;;;3.26;78.94
49949;BME280;35840;45.982;8.890;2024-01-16T11:50:11;97789.53;;;3.31;78.89
49949;BME280;35840;45.982;8.890;2024-01-16T11:52:43;97770.56;;;3.40;79.54
49949;BME280;35840;45.982;8.890;2024-01-16T11:55:30;97771.19;;;3.45;78.95
49949;BME280;35840;45.982;8.890;2024-01-16T12:01:01;97754.81;;;3.52;79.06
49949;BME280;35840;45.982;8.890;2024-01-16T12:03:30;97752.41;;;3.49;79.66
49949;BME280;35840;45.982;8.890;2024-01-16T12:06:02;97749.00;;;3.49;79.24
49949;BME280;35840;45.982;8.890;2024-01-16T12:08:30;97733.66;;;3.52;79.75
49949;BME280;35840;45.982;8.890;2024-01-16T12:10:57;97734.53;;;3.51;79.69
49949;BME280;35840;45.982;8.890;2024-01-16T12:13:24;97741.03;;;3.58;78.68
49949;BME280;35840;45.982;8.890;2024-01-16T12:16:01;97741.03;;;3.58;78.67
49949;BME280;35840;45.982;8.890;2024-01-16T12:18:30;97740.44;;;3.72;78.74
49949;BME280;35840;45.982;8.890;2024-01-16T12:21:13;97731.59;;;3.81;77.84
49949;BME280;35840;45.982;8.890;2024-01-16T12:23:42;97734.84;;;3.84;77.89
49949;BME280;35840;45.982;8.890;2024-01-16T12:26:22;97727.56;;;3.95;77.51
49949;BME280;35840;45.982;8.890;2024-01-16T12:28:54;97723.56;;;4.09;78.31
49949;BME280;35840;45.982;8.890;2024-01-16T12:31:26;97720.81;;;4.13;76.94
49949;BME280;35840;45.982;8.890;2024-01-16T12:34:07;97712.94;;;4.20;77.84
49949;BME280;35840;45.982;8.890;2024-01-16T12:36:37;97716.00;;;4.26;78.40
49949;BME280;35840;45.982;8.890;2024-01-16T12:39:04;97706.94;;;4.40;79.16
49949;BME280;35840;45.982;8.890;2024-01-16T12:41:41;97718.16;;;4.36;78.58
49949;BME280;35840;45.982;8.890;2024-01-16T12:44:10;97712.09;;;4.38;78.17
49949;BME280;35840;45.982;8.890;2024-01-16T12:46:46;97708.38;;;4.82;76.21
49949;BME280;35840;45.982;8.890;2024-01-16T12:49:20;97706.50;;;4.86;75.64
49949;BME280;35840;45.982;8.890;2024-01-16T12:51:48;97700.34;;;5.07;71.17
49949;BME280;35840;45.982;8.890;2024-01-16T12:54:17;97702.59;;;5.31;68.73
49949;BME280;35840;45.982;8.890;2024-01-16T12:56:46;97694.78;;;5.51;66.49
49949;BME280;35840;45.982;8.890;2024-01-16T12:59:14;97697.03;;;5.58;65.74
49949;BME280;35840;45.982;8.890;2024-01-16T13:01:42;97684.53;;;5.69;64.16
49949;BME280;35840;45.982;8.890;2024-01-16T13:04:10;97684.06;;;5.78;65.42
49949;BME280;35840;45.982;8.890;2024-01-16T13:06:37;97681.75;;;5.90;64.18
49949;BME280;35840;45.982;8.890;2024-01-16T13:09:09;97680.56;;;5.97;63.71
49949;BME280;35840;45.982;8.890;2024-01-16T13:11:53;97687.25;;;5.99;63.17
49949;BME280;35840;45.982;8.890;2024-01-16T13:14:22;97687.25;;;5.99;64.46
49949;BME280;35840;45.982;8.890;2024-01-16T13:16:50;97671.94;;;5.99;62.95
49949;BME280;35840;45.982;8.890;2024-01-16T13:19:18;97681.75;;;6.07;64.91
49949;BME280;35840;45.982;8.890;2024-01-16T13:21:49;97672.53;;;6.20;64.14
49949;BME280;35840;45.982;8.890;2024-01-16T13:24:17;97676.97;;;6.17;63.39